Terminal Aerodrome Forecast
Issued by NWS Quad Cities IA IL

Home | Current Version | Previous Version | Text Only | Print | Product List | Glossary On
Versions: 1 2 3 4 5 6 7 8 9 10 11 12 13 14 15 16 17
000
FTUS43 KDVN 292000 AAA
TAFDBQ
TAF AMD
KDBQ 292059Z 2921/3018 32010KT P6SM VCSH BKN050
     FM300200 32004KT P6SM SCT060
     FM301000 32003KT 6SM BR SCT010
     FM301500 32006KT P6SM FEW060=

USA.gov is the U.S. government's official web portal to all federal, state and local government web resources and services.